Tenville Junction, Iowa
Current Conditions -  °F | °C
As of 8:55 AM on Monday 24 Nov 2014 (Local Time) from KRDK Reporting Station
Overcast Overcast  
Wind Chill: 15°   Ceiling: 3300
Heat Index: 28°   Visibility: 10mi
Dew Point: 19°   Wind: 20mph
Humidity: 69%   Direction: 300°WNW
Pressure: 29.65"   Gusts: 32mph
Location:  40.9867°N, 94.9847°W
Report Text: KRDK 241455Z AUTO 30017G28KT 10SM OVC033 M02/M07 A2965 RMK AO2
Loading
Personal Weather Stations






























Interactive Weather Map New forecast layout! Learn more

10-Day Weather Forecast

Advertisements
Track Severe Weather on mobile